Time;durP1;ratioP1;P1;durP2;ratioP2;P2;SDS_P1;SDS_P2;PMS_P1;PMS_P2;Temp;Humidity;BMP_temperature;BMP_pressure;BME280_temperature;BME280_humidity;BME280_pressure;Samples;Min_cycle;Max_cycle;Signal;HPM_P1;HPM_P2
2022/08/14 00:01:11;;;;;;;;;;;;;;;23.08;57.57;98952.88;3160709;28;19931;-68
2022/08/14 00:02:44;;;;;;;;;;;;;;;23.08;57.36;98953.69;3157468;28;19920;-67
2022/08/14 00:04:16;;;;;;;;;;;;;;;23.11;57.10;98948.03;3160447;28;19936;-66
2022/08/14 00:05:48;;;;;;;;;;;;;;;23.12;57.00;98955.00;3160423;28;19931;-67
2022/08/14 00:07:18;;;;;;;;;;;;;;;23.15;56.96;98948.53;3160149;28;19972;-67
2022/08/14 00:08:50;;;;;;;;;;;;;;;23.16;57.15;98942.22;3157218;28;19930;-67
2022/08/14 00:10:22;;;;;;;;;;;;;;;23.18;57.17;98948.19;3159975;28;19923;-69
2022/08/14 00:11:53;;;;;;;;;;;;;;;23.15;57.39;98937.91;3158449;28;20337;-67
2022/08/14 00:13:27;;;;;;;;;;;;;;;23.15;57.16;98933.41;3158976;28;20006;-67
2022/08/14 00:14:59;;;;;;;;;;;;;;;23.15;57.52;98928.09;3160241;28;20334;-67
2022/08/14 00:16:32;;;;;;;;;;;;;;;23.12;57.35;98932.94;3160387;28;19935;-67
2022/08/14 00:18:04;;;;;;;;;;;;;;;23.13;57.04;98926.59;3160204;28;20300;-67
2022/08/14 00:19:36;;;;;;;;;;;;;;;23.11;57.55;98933.94;3160056;28;19920;-67
2022/08/14 00:21:08;;;;;;;;;;;;;;;23.04;57.80;98935.59;3160089;28;19942;-67
2022/08/14 00:22:39;;;;;;;;;;;;;;;23.00;57.65;98929.81;3160247;28;19920;-67
2022/08/14 00:24:11;;;;;;;;;;;;;;;22.93;58.07;98929.63;3160108;28;20346;-66
2022/08/14 00:25:42;;;;;;;;;;;;;;;22.90;58.19;98924.66;3160112;28;19920;-68
2022/08/14 00:27:13;;;;;;;;;;;;;;;22.86;58.21;98931.28;3159731;28;19985;-67
2022/08/14 00:28:45;;;;;;;;;;;;;;;22.84;58.11;98925.34;3160718;28;19931;-68
2022/08/14 00:30:17;;;;;;;;;;;;;;;22.83;58.42;98928.16;3160321;28;19931;-68
2022/08/14 00:31:50;;;;;;;;;;;;;;;22.80;58.40;98924.00;3160095;28;20283;-68
2022/08/14 00:33:21;;;;;;;;;;;;;;;22.78;58.53;98927.84;3159672;28;20268;-68
2022/08/14 00:34:52;;;;;;;;;;;;;;;22.74;58.84;98924.69;3160456;28;19926;-68
2022/08/14 00:36:24;;;;;;;;;;;;;;;22.74;58.57;98923.88;3160388;28;19930;-67
2022/08/14 00:37:56;;;;;;;;;;;;;;;22.74;58.49;98921.22;3156447;28;19927;-68
2022/08/14 00:39:27;;;;;;;;;;;;;;;22.73;58.62;98922.22;3159668;28;19920;-68
2022/08/14 00:40:59;;;;;;;;;;;;;;;22.71;58.80;98919.72;3154709;28;19920;-68
2022/08/14 00:42:30;;;;;;;;;;;;;;;22.75;58.62;98917.56;3160265;28;19924;-67
2022/08/14 00:44:01;;;;;;;;;;;;;;;22.73;58.69;98912.41;3159899;28;19947;-68
2022/08/14 00:45:34;;;;;;;;;;;;;;;22.76;58.40;98919.22;3153895;28;19931;-68
2022/08/14 00:47:07;;;;;;;;;;;;;;;22.72;58.55;98916.09;3160204;28;19924;-68
2022/08/14 00:48:39;;;;;;;;;;;;;;;22.70;58.56;98915.41;3160322;28;20010;-68
2022/08/14 00:50:12;;;;;;;;;;;;;;;22.73;58.54;98911.59;3159990;28;20329;-68
2022/08/14 00:51:44;;;;;;;;;;;;;;;22.75;58.63;98912.28;3159776;28;19920;-68
2022/08/14 00:53:16;;;;;;;;;;;;;;;22.70;58.84;98908.28;3158737;28;20344;-68
2022/08/14 00:54:53;;;;;;;;;;;;;;;22.70;58.63;98915.41;3157212;28;19920;-68
2022/08/14 00:56:25;;;;;;;;;;;;;;;22.71;58.58;98917.88;3156922;28;20280;-68
2022/08/14 00:59:42;;;;;;;;;;;;;;;22.61;59.34;98919.91;3157738;28;19924;-68
2022/08/14 01:01:15;;;;;;;;;;;;;;;22.60;59.45;98917.44;3158080;28;19931;-68
2022/08/14 01:02:49;;;;;;;;;;;;;;;22.60;59.09;98905.00;3156906;28;19931;-68
2022/08/14 01:04:21;;;;;;;;;;;;;;;22.60;59.27;98907.66;3154866;28;19928;-68
2022/08/14 01:05:53;;;;;;;;;;;;;;;22.63;59.04;98917.09;3153559;28;19928;-68
2022/08/14 01:07:24;;;;;;;;;;;;;;;22.62;59.26;98904.81;3154687;28;19931;-68
2022/08/14 01:08:56;;;;;;;;;;;;;;;22.57;59.34;98912.44;3148079;28;20112;-68
2022/08/14 01:12:15;;;;;;;;;;;;;;;22.50;59.50;98909.63;3147053;28;20530;-68
2022/08/14 01:13:49;;;;;;;;;;;;;;;22.47;59.99;98905.47;3158411;28;19924;-68
2022/08/14 01:15:20;;;;;;;;;;;;;;;22.48;59.56;98907.16;3153284;28;19923;-68
2022/08/14 01:16:52;;;;;;;;;;;;;;;22.52;59.25;98904.16;3153831;28;19929;-68
2022/08/14 01:22:06;;;;;;;;;;;;;;;22.63;58.56;98898.53;3121129;28;20399;-68
2022/08/14 01:23:37;;;;;;;;;;;;;;;;;;3151438;28;19974;-68
2022/08/14 01:25:09;;;;;;;;;;;;;;;22.69;58.42;98896.00;3150945;28;20015;-68
2022/08/14 01:26:41;;;;;;;;;;;;;;;22.75;58.50;98899.00;3157199;28;20367;-68
2022/08/14 01:28:13;;;;;;;;;;;;;;;22.74;58.32;98895.50;3157369;28;19955;-68
2022/08/14 01:29:45;;;;;;;;;;;;;;;22.76;58.10;98898.81;3152383;28;19931;-68
2022/08/14 01:31:18;;;;;;;;;;;;;;;22.79;58.15;98901.13;3158709;28;19934;-68
2022/08/14 01:32:50;;;;;;;;;;;;;;;22.79;58.11;98895.00;3141568;28;19931;-67
2022/08/14 01:34:25;;;;;;;;;;;;;;;22.83;57.89;98898.97;3147756;28;19924;-67
2022/08/14 01:35:56;;;;;;;;;;;;;;;22.84;57.68;98897.97;3150402;28;19925;-68
2022/08/14 01:37:29;;;;;;;;;;;;;;;22.83;57.96;98894.47;3149793;28;19926;-67
2022/08/14 01:39:01;;;;;;;;;;;;;;;22.82;58.08;98895.47;3150900;28;20346;-68
2022/08/14 01:40:32;;;;;;;;;;;;;;;22.82;57.86;98899.97;3144101;28;19948;-68
2022/08/14 01:42:04;;;;;;;;;;;;;;;22.82;57.75;98895.47;3148434;28;19921;-68
2022/08/14 01:43:42;;;;;;;;;;;;;;;22.85;57.62;98903.09;3155183;28;20269;-68
2022/08/14 01:45:14;;;;;;;;;;;;;;;22.88;57.56;98901.94;3154862;28;19921;-68
2022/08/14 01:46:45;;;;;;;;;;;;;;;22.89;57.47;98899.13;3148613;28;19920;-68
2022/08/14 01:48:16;;;;;;;;;;;;;;;22.91;57.55;98899.75;3157992;28;19939;-68
2022/08/14 01:49:48;;;;;;;;;;;;;;;22.89;57.81;98903.59;3153426;28;19920;-68
2022/08/14 01:51:22;;;;;;;;;;;;;;;22.87;57.97;98903.78;3156982;28;20069;-68
2022/08/14 01:52:54;;;;;;;;;;;;;;;22.83;58.42;98907.75;3157817;28;20293;-68
2022/08/14 01:54:27;;;;;;;;;;;;;;;22.79;58.54;98905.63;3151963;28;19931;-67
2022/08/14 01:55:58;;;;;;;;;;;;;;;22.74;58.62;98906.09;3155132;28;19920;-68
2022/08/14 01:57:30;;;;;;;;;;;;;;;22.73;58.54;98906.28;3159461;28;19930;-68
2022/08/14 01:59:01;;;;;;;;;;;;;;;22.73;58.45;98901.81;3140890;28;20257;-68
2022/08/14 02:00:37;;;;;;;;;;;;;;;22.77;58.57;98903.13;3154505;28;20303;-67
2022/08/14 02:02:12;;;;;;;;;;;;;;;22.78;58.36;98903.97;3155218;28;20003;-68
2022/08/14 02:03:43;;;;;;;;;;;;;;;22.78;58.59;98904.78;3146870;28;20375;-67
2022/08/14 02:05:14;;;;;;;;;;;;;;;22.76;58.60;98904.13;3147197;28;19920;-67
2022/08/14 02:06:47;;;;;;;;;;;;;;;22.75;58.52;98896.34;3158419;28;20352;-67
2022/08/14 02:08:20;;;;;;;;;;;;;;;22.78;58.43;98903.97;3149985;28;19920;-67
2022/08/14 02:09:51;;;;;;;;;;;;;;;22.81;58.09;98895.66;3149721;28;20423;-67
2022/08/14 02:11:24;;;;;;;;;;;;;;;22.85;58.03;98895.13;3150667;28;19939;-67
2022/08/14 02:12:56;;;;;;;;;;;;;;;22.88;57.79;98880.69;3142959;28;20611;-67
2022/08/14 02:14:28;;;;;;;;;;;;;;;22.91;57.89;98885.66;3158003;28;21851;-67
2022/08/14 02:15:59;;;;;;;;;;;;;;;22.92;58.01;98890.81;3158749;28;19920;-68
2022/08/14 02:17:33;;;;;;;;;;;;;;;22.96;57.71;98890.50;3158805;28;19966;-68
2022/08/14 02:19:06;;;;;;;;;;;;;;;22.96;57.79;98886.03;3146465;28;19985;-68
2022/08/14 02:20:38;;;;;;;;;;;;;;;22.97;57.97;98887.66;3157557;28;20243;-68
2022/08/14 02:22:09;;;;;;;;;;;;;;;22.97;57.69;98885.00;3152472;28;19932;-68
2022/08/14 02:23:43;;;;;;;;;;;;;;;22.99;57.91;98890.16;3150859;28;19935;-68
2022/08/14 02:25:14;;;;;;;;;;;;;;;23.00;57.80;98887.31;3147758;28;19920;-68
2022/08/14 02:26:48;;;;;;;;;;;;;;;22.99;57.70;98890.16;3149398;28;20359;-68
2022/08/14 02:28:19;;;;;;;;;;;;;;;22.99;57.85;98887.50;3149516;28;19920;-68
2022/08/14 02:29:55;;;;;;;;;;;;;;;23.00;57.76;98889.16;3156919;28;19947;-68
2022/08/14 02:31:28;;;;;;;;;;;;;;;23.02;57.34;98887.16;3157632;28;19931;-67
2022/08/14 02:33:00;;;;;;;;;;;;;;;23.02;57.15;98889.81;3147807;28;19921;-67
2022/08/14 02:34:33;;;;;;;;;;;;;;;23.03;57.52;98883.50;3149403;28;20343;-67
2022/08/14 02:36:04;;;;;;;;;;;;;;;23.03;57.54;98881.66;3156534;28;19931;-67
2022/08/14 02:37:36;;;;;;;;;;;;;;;23.01;57.71;98882.84;3158105;28;19920;-67
2022/08/14 02:39:10;;;;;;;;;;;;;;;23.02;57.31;98889.81;3153179;28;20057;-67
2022/08/14 02:40:42;;;;;;;;;;;;;;;22.99;57.75;98877.72;3147401;28;20296;-67
2022/08/14 02:42:14;;;;;;;;;;;;;;;22.92;57.92;98880.19;3157326;28;19920;-67
2022/08/14 02:43:45;;;;;;;;;;;;;;;22.85;57.93;98884.53;3159713;28;20287;-67
2022/08/14 02:45:17;;;;;;;;;;;;;;;22.79;58.12;98882.53;3160053;28;19920;-67
2022/08/14 02:46:48;;;;;;;;;;;;;;;22.75;58.75;98888.38;3150979;28;19931;-67
2022/08/14 02:48:20;;;;;;;;;;;;;;;;;;3160831;28;19920;-67
2022/08/14 02:49:52;;;;;;;;;;;;;;;22.61;58.49;98876.63;3149281;28;19928;-68
2022/08/14 02:51:24;;;;;;;;;;;;;;;22.57;59.08;98872.63;3157579;28;19935;-68
2022/08/14 02:52:56;;;;;;;;;;;;;;;22.51;59.21;98875.97;3155606;28;19924;-68
2022/08/14 02:54:29;;;;;;;;;;;;;;;22.45;59.17;98870.34;3152044;28;19920;-67
2022/08/14 02:56:03;;;;;;;;;;;;;;;22.42;59.32;98870.69;3152241;28;19924;-66
2022/08/14 02:57:34;;;;;;;;;;;;;;;22.41;59.32;98876.16;3157198;28;20031;-66
2022/08/14 02:59:08;;;;;;;;;;;;;;;22.38;59.31;98871.19;3157617;28;19951;-67
2022/08/14 03:00:39;;;;;;;;;;;;;;;22.37;59.32;98866.88;3152527;28;19920;-67
2022/08/14 03:02:11;;;;;;;;;;;;;;;22.38;59.58;98869.34;3149062;28;19932;-67
2022/08/14 03:03:44;;;;;;;;;;;;;;;22.33;59.63;98863.75;3150638;28;19969;-67
2022/08/14 03:05:15;;;;;;;;;;;;;;;22.30;59.71;98864.03;3161061;28;19920;-67
2022/08/14 03:06:47;;;;;;;;;;;;;;;22.28;59.78;98865.22;3160259;28;20014;-67
2022/08/14 03:08:20;;;;;;;;;;;;;;;22.24;60.10;98872.66;3152159;28;19924;-66
2022/08/14 03:09:53;;;;;;;;;;;;;;;22.22;60.30;98872.84;3148938;28;19924;-66
2022/08/14 03:11:25;;;;;;;;;;;;;;;22.20;60.26;98872.19;3153291;28;19994;-67
2022/08/14 03:12:56;;;;;;;;;;;;;;;22.19;60.17;98867.88;3158240;28;19925;-66
2022/08/14 03:14:27;;;;;;;;;;;;;;;22.15;60.78;98869.16;3153990;28;20139;-67
2022/08/14 03:15:59;;;;;;;;;;;;;;;22.15;60.76;98870.97;3141083;28;19931;-67
2022/08/14 03:17:31;;;;;;;;;;;;;;;22.11;61.12;98867.84;3160362;28;19927;-66
2022/08/14 03:19:04;;;;;;;;;;;;;;;22.08;61.22;98870.00;3161194;28;19919;-66
2022/08/14 03:20:35;;;;;;;;;;;;;;;22.02;61.73;98861.72;3159639;28;20291;-66
2022/08/14 03:22:06;;;;;;;;;;;;;;;21.96;62.00;98859.72;3148558;28;19925;-66
2022/08/14 03:23:37;;;;;;;;;;;;;;;21.93;62.25;98859.22;3156599;28;19964;-66
2022/08/14 03:25:10;;;;;;;;;;;;;;;21.87;62.60;98852.75;3154218;28;19923;-66
2022/08/14 03:26:43;;;;;;;;;;;;;;;21.86;62.64;98850.25;3148754;28;19920;-66
2022/08/14 03:28:15;;;;;;;;;;;;;;;21.84;62.81;98857.56;3146120;28;19932;-66
2022/08/14 03:29:47;;;;;;;;;;;;;;;21.80;63.00;98857.06;3148188;28;19952;-66
2022/08/14 03:31:22;;;;;;;;;;;;;;;21.79;62.89;98858.06;3157565;28;19935;-65
2022/08/14 03:32:53;;;;;;;;;;;;;;;21.83;62.80;98858.53;3157910;28;20340;-65
2022/08/14 03:34:24;;;;;;;;;;;;;;;21.83;62.83;98859.41;3157461;28;19931;-66
2022/08/14 03:35:56;;;;;;;;;;;;;;;21.83;62.58;98856.75;3157615;28;19923;-66
2022/08/14 03:37:28;;;;;;;;;;;;;;;21.86;62.26;98861.72;3155312;28;19998;-66
2022/08/14 03:38:59;;;;;;;;;;;;;;;21.88;62.49;98861.53;3154974;28;19924;-66
2022/08/14 03:40:32;;;;;;;;;;;;;;;21.88;62.68;98859.72;3151620;28;20039;-65
2022/08/14 03:42:04;;;;;;;;;;;;;;;21.88;62.50;98857.06;3157500;28;19919;-66
2022/08/14 03:43:36;;;;;;;;;;;;;;;21.92;61.84;98855.75;3150420;28;19946;-66
2022/08/14 03:45:08;;;;;;;;;;;;;;;21.95;61.94;98867.84;3160281;28;20301;-65
2022/08/14 03:46:41;;;;;;;;;;;;;;;21.98;61.96;98856.94;3150555;28;19932;-66
2022/08/14 03:48:18;;;;;;;;;;;;;;;22.00;61.65;98861.03;3155769;28;19926;-66
2022/08/14 03:49:49;;;;;;;;;;;;;;;22.03;61.52;98863.34;3156091;28;19923;-66
2022/08/14 03:51:21;;;;;;;;;;;;;;;22.07;61.80;98865.72;3160549;28;19924;-66
2022/08/14 03:52:52;;;;;;;;;;;;;;;22.09;61.47;98875.13;3156302;28;19924;-66
2022/08/14 03:54:24;;;;;;;;;;;;;;;22.13;61.17;98875.66;3155716;28;19920;-66
2022/08/14 03:55:57;;;;;;;;;;;;;;;22.16;61.49;98880.63;3152090;28;19964;-66
2022/08/14 03:57:31;;;;;;;;;;;;;;;22.16;61.39;98875.31;3151396;28;20030;-66
2022/08/14 03:59:10;;;;;;;;;;;;;;;22.17;61.51;98885.78;3157747;28;20006;-66
2022/08/14 04:00:44;;;;;;;;;;;;;;;22.19;61.58;98877.66;3158406;28;19924;-66
2022/08/14 04:02:15;;;;;;;;;;;;;;;22.17;61.58;98877.81;3158565;28;19968;-66
2022/08/14 04:03:47;;;;;;;;;;;;;;;22.20;61.22;98887.28;3151689;28;19935;-66
2022/08/14 04:05:18;;;;;;;;;;;;;;;22.21;61.44;98886.25;3160188;28;19930;-66
2022/08/14 04:06:50;;;;;;;;;;;;;;;22.21;61.69;98887.13;3160840;28;19934;-66
2022/08/14 04:08:22;;;;;;;;;;;;;;;22.19;61.73;98890.94;3148479;28;19928;-66
2022/08/14 04:09:53;;;;;;;;;;;;;;;22.20;61.65;98897.88;3152926;28;19920;-65
2022/08/14 04:11:28;;;;;;;;;;;;;;;22.19;62.17;98899.72;3157163;28;19920;-66
2022/08/14 04:13:00;;;;;;;;;;;;;;;22.21;61.84;98896.88;3159252;28;19924;-66
2022/08/14 04:14:31;;;;;;;;;;;;;;;22.20;61.54;98888.09;3159522;28;19960;-66
2022/08/14 04:16:04;;;;;;;;;;;;;;;22.23;61.84;98897.53;3160016;28;19920;-66
2022/08/14 04:17:35;;;;;;;;;;;;;;;22.21;62.69;98895.06;3159243;28;19927;-66
2022/08/14 04:19:07;;;;;;;;;;;;;;;22.16;63.01;98888.56;3142491;28;19931;-66
2022/08/14 04:20:39;;;;;;;;;;;;;;;22.16;62.90;98900.00;3154277;28;19977;-66
2022/08/14 04:22:10;;;;;;;;;;;;;;;22.16;63.04;98902.66;3150111;28;19924;-66
2022/08/14 04:23:42;;;;;;;;;;;;;;;22.15;63.29;98898.31;3151995;28;19931;-67
2022/08/14 04:25:13;;;;;;;;;;;;;;;22.15;63.00;98903.63;3150644;28;20451;-67
2022/08/14 04:26:47;;;;;;;;;;;;;;;22.18;63.18;98895.41;3149892;28;19928;-67
2022/08/14 04:28:18;;;;;;;;;;;;;;;22.18;63.00;98903.38;3156986;28;20376;-67
2022/08/14 04:29:50;;;;;;;;;;;;;;;22.21;63.07;98902.19;3157090;28;19924;-67
2022/08/14 04:31:21;;;;;;;;;;;;;;;22.24;62.73;98908.00;3158296;28;19943;-67
2022/08/14 04:32:53;;;;;;;;;;;;;;;22.26;62.98;98902.50;3159498;28;20006;-67
2022/08/14 04:34:25;;;;;;;;;;;;;;;22.29;62.62;98904.84;3150687;28;19924;-67
2022/08/14 04:35:55;;;;;;;;;;;;;;;22.31;62.70;98908.16;3158111;28;19935;-67
2022/08/14 04:44:45;;;;;;;;;;;;;;;22.34;63.38;98905.19;3156448;28;19920;-67
2022/08/14 04:46:18;;;;;;;;;;;;;;;22.33;63.51;98907.97;3148214;28;19924;-67
2022/08/14 04:49:41;;;;;;;;;;;;;;;22.27;64.12;98906.81;3155850;28;20269;-67
2022/08/14 04:51:13;;;;;;;;;;;;;;;22.23;64.18;98911.63;3157871;28;19927;-66
2022/08/14 04:52:48;;;;;;;;;;;;;;;22.19;64.61;98897.06;3150442;28;19920;-67
2022/08/14 04:54:19;;;;;;;;;;;;;;;22.10;65.07;98897.19;3153953;28;19943;-67
2022/08/14 04:55:51;;;;;;;;;;;;;;;22.13;65.06;98902.16;3149516;28;19924;-66
2022/08/14 04:57:22;;;;;;;;;;;;;;;22.12;65.00;98892.53;3152754;28;19920;-67
2022/08/14 04:58:58;;;;;;;;;;;;;;;22.15;64.75;98895.69;3159229;28;19931;-66
2022/08/14 05:00:30;;;;;;;;;;;;;;;22.11;65.40;98890.88;3159675;28;19924;-66
2022/08/14 05:02:02;;;;;;;;;;;;;;;22.07;65.52;98894.88;3157132;28;20000;-65
2022/08/14 05:03:34;;;;;;;;;;;;;;;22.09;65.21;98895.50;3147830;28;19920;-66
2022/08/14 05:05:07;;;;;;;;;;;;;;;22.10;64.92;98895.38;3155161;28;20478;-66
2022/08/14 05:06:39;;;;;;;;;;;;;;;22.09;65.11;98893.69;3142577;28;19927;-66
2022/08/14 05:08:11;;;;;;;;;;;;;;;22.05;65.04;98902.97;3148179;28;19935;-66
2022/08/14 05:09:43;;;;;;;;;;;;;;;22.09;64.84;98893.69;3152809;28;19942;-66
2022/08/14 05:11:15;;;;;;;;;;;;;;;22.15;64.82;98890.38;3150001;28;19928;-67
2022/08/14 05:12:47;;;;;;;;;;;;;;;22.19;64.67;98890.94;3154750;28;20019;-67
2022/08/14 05:14:21;;;;;;;;;;;;;;;22.24;64.47;98883.28;3152147;28;19978;-65
2022/08/14 05:15:53;;;;;;;;;;;;;;;22.31;64.45;98892.25;3155665;28;19920;-66
2022/08/14 05:17:25;;;;;;;;;;;;;;;22.36;63.94;98884.63;3155293;28;19929;-67
2022/08/14 05:18:57;;;;;;;;;;;;;;;22.41;63.92;98890.22;3155131;28;20368;-67
2022/08/14 05:20:29;;;;;;;;;;;;;;;22.38;64.02;98879.97;3155429;28;19920;-67
2022/08/14 05:22:01;;;;;;;;;;;;;;;22.40;64.28;98880.63;3147212;28;20423;-66
2022/08/14 05:23:33;;;;;;;;;;;;;;;22.42;63.88;98883.97;3151927;28;19924;-68
2022/08/14 05:25:06;;;;;;;;;;;;;;;22.44;63.83;98878.47;3154740;28;19955;-66
2022/08/14 05:26:39;;;;;;;;;;;;;;;22.46;63.75;98879.97;3150553;28;19947;-67
2022/08/14 05:28:11;;;;;;;;;;;;;;;22.48;63.74;98877.16;3158309;28;19925;-65
2022/08/14 05:29:46;;;;;;;;;;;;;;;22.53;63.54;98873.97;3158008;28;19935;-68
2022/08/14 05:31:17;;;;;;;;;;;;;;;22.56;63.38;98877.13;3154684;28;19927;-65
2022/08/14 05:32:49;;;;;;;;;;;;;;;22.60;63.19;98883.75;3160271;28;19931;-66
2022/08/14 05:34:22;;;;;;;;;;;;;;;22.66;63.02;98871.66;3140808;28;19969;-66
2022/08/14 05:35:59;;;;;;;;;;;;;;;22.68;62.98;98874.94;3152210;28;19996;-68
2022/08/14 05:37:31;;;;;;;;;;;;;;;22.69;62.92;98884.56;3154182;28;20269;-68
2022/08/14 05:39:03;;;;;;;;;;;;;;;22.70;62.91;98880.91;3153735;28;19931;-65
2022/08/14 05:40:35;;;;;;;;;;;;;;;22.76;62.32;98882.88;3150930;28;19920;-67
2022/08/14 05:42:07;;;;;;;;;;;;;;;22.82;62.23;98879.56;3158025;28;19935;-66
2022/08/14 05:43:39;;;;;;;;;;;;;;;22.82;62.34;98884.84;3158209;28;20303;-67
2022/08/14 05:45:13;;;;;;;;;;;;;;;22.84;62.42;98887.34;3159196;28;19999;-66
2022/08/14 05:46:45;;;;;;;;;;;;;;;22.88;62.35;98889.50;3151027;28;20007;-66
2022/08/14 05:48:16;;;;;;;;;;;;;;;22.95;62.09;98884.34;3143236;28;19924;-67
2022/08/14 05:49:48;;;;;;;;;;;;;;;22.95;62.55;98889.66;3145482;28;19931;-66
2022/08/14 05:51:20;;;;;;;;;;;;;;;22.90;62.70;98882.19;3149704;28;20295;-67
2022/08/14 05:52:51;;;;;;;;;;;;;;;22.86;62.69;98885.34;3149901;28;19971;-65
2022/08/14 05:54:24;;;;;;;;;;;;;;;22.80;63.11;98878.06;3158185;28;19931;-65
2022/08/14 05:55:57;;;;;;;;;;;;;;;22.78;63.53;98886.22;3153633;28;19935;-65
2022/08/14 05:57:29;;;;;;;;;;;;;;;22.78;63.57;98882.72;3157299;28;19920;-66
2022/08/14 05:59:01;;;;;;;;;;;;;;;22.81;63.79;98885.88;3159180;28;19974;-64
2022/08/14 06:00:35;;;;;;;;;;;;;;;22.86;63.51;98885.34;3159699;28;20406;-63
2022/08/14 06:02:07;;;;;;;;;;;;;;;22.90;63.73;98884.84;3160163;28;19920;-64
2022/08/14 06:03:39;;;;;;;;;;;;;;;22.97;63.40;98892.16;3156667;28;19977;-64
2022/08/14 06:05:10;;;;;;;;;;;;;;;23.01;63.50;98888.16;3161292;28;19935;-64
2022/08/14 06:06:42;;;;;;;;;;;;;;;23.04;62.91;98893.13;3161556;28;20584;-64
2022/08/14 06:08:15;;;;;;;;;;;;;;;23.10;62.71;98892.44;3154745;28;19932;-65
2022/08/14 06:09:47;;;;;;;;;;;;;;;23.12;62.86;98887.78;3149340;28;19971;-65
2022/08/14 06:11:18;;;;;;;;;;;;;;;23.10;62.82;98889.78;3148559;28;19931;-64
2022/08/14 06:12:49;;;;;;;;;;;;;;;23.08;62.77;98891.78;3151589;28;19924;-64
2022/08/14 06:14:21;;;;;;;;;;;;;;;23.09;63.09;98888.94;3149191;28;20292;-63
2022/08/14 06:15:54;;;;;;;;;;;;;;;23.10;62.82;98892.44;3149169;28;20388;-64
2022/08/14 06:17:24;;;;;;;;;;;;;;;23.11;62.61;98894.94;3151791;28;20394;-64
2022/08/14 06:18:56;;;;;;;;;;;;;;;23.13;62.64;98890.28;3149810;28;19924;-63
2022/08/14 06:20:27;;;;;;;;;;;;;;;23.14;62.63;98894.59;3154536;28;19978;-64
2022/08/14 06:21:59;;;;;;;;;;;;;;;23.13;62.93;98889.44;3146926;28;20003;-63
2022/08/14 06:23:30;;;;;;;;;;;;;;;23.10;62.78;98884.47;3144843;28;19932;-63
2022/08/14 06:25:01;;;;;;;;;;;;;;;23.08;63.05;98892.63;3149019;28;19925;-65
2022/08/14 06:26:33;;;;;;;;;;;;;;;23.08;62.98;98886.47;3154820;28;20019;-63
2022/08/14 06:28:05;;;;;;;;;;;;;;;23.10;62.87;98885.31;3149428;28;19930;-65
2022/08/14 06:29:36;;;;;;;;;;;;;;;23.09;63.09;98890.78;3158221;28;20016;-65
2022/08/14 06:31:10;;;;;;;;;;;;;;;23.11;62.90;98897.59;3156607;28;19921;-64
2022/08/14 06:32:42;;;;;;;;;;;;;;;23.13;62.60;98902.72;3156746;28;19923;-62
2022/08/14 06:34:14;;;;;;;;;;;;;;;23.14;62.86;98907.88;3155041;28;19920;-65
2022/08/14 06:35:46;;;;;;;;;;;;;;;23.12;62.47;98901.06;3142507;28;20009;-63
2022/08/14 06:37:18;;;;;;;;;;;;;;;23.11;62.77;98902.06;3157203;28;19989;-63
2022/08/14 06:38:51;;;;;;;;;;;;;;;23.10;62.65;98903.06;3157820;28;20420;-63
2022/08/14 06:40:24;;;;;;;;;;;;;;;23.08;62.74;98900.59;3154170;28;19921;-63
2022/08/14 06:41:55;;;;;;;;;;;;;;;23.08;62.80;98900.59;3158198;28;19939;-62
2022/08/14 06:43:27;;;;;;;;;;;;;;;23.04;62.66;98901.94;3157756;28;19920;-63
2022/08/14 06:45:00;;;;;;;;;;;;;;;23.02;62.46;98900.44;3157949;28;19920;-65
2022/08/14 06:46:33;;;;;;;;;;;;;;;23.03;62.35;98902.91;3149732;28;20342;-62
2022/08/14 06:48:13;;;;;;;;;;;;;;;23.00;62.13;98907.75;3154900;28;19919;-63
2022/08/14 06:49:43;;;;;;;;;;;;;;;22.97;62.44;98900.13;3159715;28;19954;-63
2022/08/14 06:51:16;;;;;;;;;;;;;;;22.92;62.33;98901.44;3159854;28;20060;-63
2022/08/14 06:52:47;;;;;;;;;;;;;;;22.94;62.47;98903.91;3160612;28;20023;-63
2022/08/14 06:54:18;;;;;;;;;;;;;;;22.96;62.22;98895.81;3160871;28;19924;-64
2022/08/14 06:55:50;;;;;;;;;;;;;;;22.96;62.29;98894.00;3149260;28;19920;-63
2022/08/14 06:57:21;;;;;;;;;;;;;;;22.98;62.60;98893.81;3156455;28;19924;-62
2022/08/14 06:58:53;;;;;;;;;;;;;;;23.02;62.37;98895.13;3156553;28;19920;-64
2022/08/14 07:00:25;;;;;;;;;;;;;;;23.02;62.31;98897.78;3155436;28;19920;-67
2022/08/14 07:05:46;;;;;;;;;;;;;;;23.01;62.10;98896.97;3148731;28;19924;-65
2022/08/14 07:07:18;;;;;;;;;;;;;;;23.06;61.50;98902.56;3140580;28;19964;-66
2022/08/14 07:08:51;;;;;;;;;;;;;;;23.09;61.03;98901.41;3149509;28;19920;-64
2022/08/14 07:10:22;;;;;;;;;;;;;;;23.10;61.09;98906.56;3148273;28;19959;-65
2022/08/14 07:11:54;;;;;;;;;;;;;;;23.09;61.31;98906.72;3155170;28;19931;-65
2022/08/14 07:13:27;;;;;;;;;;;;;;;23.11;60.69;98904.72;3150664;28;19921;-66
2022/08/14 07:14:59;;;;;;;;;;;;;;;23.14;61.06;98904.38;3153524;28;19972;-65
2022/08/14 07:16:31;;;;;;;;;;;;;;;23.13;60.98;98908.88;3154646;28;19939;-67
2022/08/14 07:18:04;;;;;;;;;;;;;;;23.09;60.83;98907.53;3149365;28;20363;-67
2022/08/14 07:19:35;;;;;;;;;;;;;;;23.07;61.00;98906.06;3160452;28;19928;-66
2022/08/14 07:21:07;;;;;;;;;;;;;;;23.05;61.21;98910.72;3159571;28;19920;-64
2022/08/14 07:22:38;;;;;;;;;;;;;;;22.99;61.22;98906.09;3148497;28;19932;-65
2022/08/14 07:24:10;;;;;;;;;;;;;;;23.00;61.27;98913.06;3148388;28;19920;-64
2022/08/14 07:25:42;;;;;;;;;;;;;;;23.04;60.90;98919.66;3153124;28;19924;-64
2022/08/14 07:27:13;;;;;;;;;;;;;;;23.08;60.61;98916.50;3157020;28;19923;-66
2022/08/14 07:28:45;;;;;;;;;;;;;;;23.13;60.43;98918.63;3159157;28;19932;-65
2022/08/14 07:30:17;;;;;;;;;;;;;;;23.11;60.17;98918.00;3158317;28;19924;-64
2022/08/14 07:31:48;;;;;;;;;;;;;;;23.11;60.20;98916.16;3156158;28;19928;-65
2022/08/14 07:33:21;;;;;;;;;;;;;;;23.10;59.93;98917.19;3149519;28;19920;-64
2022/08/14 07:34:52;;;;;;;;;;;;;;;23.09;59.35;98915.50;3150819;28;19931;-64
2022/08/14 07:36:24;;;;;;;;;;;;;;;23.06;59.35;98920.34;3148584;28;20280;-64
2022/08/14 07:37:54;;;;;;;;;;;;;;;22.97;59.59;98919.53;3155889;28;19920;-65
2022/08/14 07:39:26;;;;;;;;;;;;;;;22.92;59.65;98921.81;3156544;28;20280;-64
2022/08/14 07:40:58;;;;;;;;;;;;;;;22.86;60.43;98923.31;3148677;28;19927;-64
2022/08/14 07:42:31;;;;;;;;;;;;;;;22.82;60.96;98916.72;3146115;28;19963;-64
2022/08/14 07:44:03;;;;;;;;;;;;;;;22.77;61.75;98928.84;3148715;28;19920;-64
2022/08/14 07:45:35;;;;;;;;;;;;;;;22.71;62.67;98923.19;3151067;28;19932;-66
2022/08/14 07:47:06;;;;;;;;;;;;;;;22.61;62.92;98932.34;3148028;28;19935;-66
2022/08/14 07:48:42;;;;;;;;;;;;;;;22.57;63.37;98923.03;3151050;28;19920;-66
2022/08/14 07:50:15;;;;;;;;;;;;;;;22.53;63.53;98925.22;3148262;28;19920;-65
2022/08/14 07:51:46;;;;;;;;;;;;;;;22.53;64.38;98929.69;3148396;28;19924;-64
2022/08/14 07:53:18;;;;;;;;;;;;;;;22.52;65.48;98923.56;3144975;28;19932;-65
2022/08/14 07:54:50;;;;;;;;;;;;;;;22.45;67.82;98923.41;3145818;28;19951;-64
2022/08/14 07:56:21;;;;;;;;;;;;;;;22.35;69.46;98920.09;3146142;28;19929;-63
2022/08/14 07:57:54;;;;;;;;;;;;;;;22.26;70.47;98921.91;3148985;28;19932;-63
2022/08/14 07:59:26;;;;;;;;;;;;;;;22.18;70.82;98916.63;3142776;28;19931;-65
2022/08/14 08:00:58;;;;;;;;;;;;;;;22.11;71.35;98923.53;3151104;28;19924;-65
2022/08/14 08:02:31;;;;;;;;;;;;;;;22.07;72.45;98919.56;3146691;28;19920;-64
2022/08/14 08:04:05;;;;;;;;;;;;;;;22.01;72.23;98913.09;3143575;28;20275;-66
2022/08/14 08:05:38;;;;;;;;;;;;;;;21.98;72.35;98913.41;3142485;28;19925;-67
2022/08/14 08:07:10;;;;;;;;;;;;;;;22.01;71.64;98915.75;3137935;28;19954;-66
2022/08/14 08:08:42;;;;;;;;;;;;;;;21.99;71.85;98914.25;3141111;28;20674;-68
2022/08/14 08:10:33;;;;;;;;;;;;;;;21.98;72.33;98917.91;3140931;28;19928;-65
2022/08/14 08:12:05;;;;;;;;;;;;;;;21.97;72.64;98913.56;3144767;28;19920;-66
2022/08/14 08:13:40;;;;;;;;;;;;;;;21.96;72.94;98920.69;3137485;28;20336;-65
2022/08/14 08:15:12;;;;;;;;;;;;;;;21.97;72.59;98922.34;3140348;28;19951;-65
2022/08/14 08:16:45;;;;;;;;;;;;;;;21.94;73.36;98920.03;3138405;28;19921;-66
2022/08/14 08:18:17;;;;;;;;;;;;;;;21.87;73.47;98932.28;3137916;28;19924;-67
2022/08/14 08:19:50;;;;;;;;;;;;;;;21.84;73.79;98927.31;3139476;28;20030;-66
2022/08/14 08:21:22;;;;;;;;;;;;;;;21.78;73.61;98923.47;3138012;28;19928;-67